Time;durP1;ratioP1;P1;durP2;ratioP2;P2;SDS_P1;SDS_P2;PMS_P1;PMS_P2;Temp;Humidity;BMP_temperature;BMP_pressure;BME280_temperature;BME280_humidity;BME280_pressure;Samples;Min_cycle;Max_cycle;Signal;HPM_P1;HPM_P2
2024/03/20 00:00:19;;;;;;;6.68;2.50;;;11.70;89.30;;;;;;5031465;28;20021;-78
2024/03/20 00:02:46;;;;;;;5.53;2.75;;;11.70;89.50;;;;;;5031223;28;20014;-78
2024/03/20 00:05:13;;;;;;;7.23;2.87;;;11.60;89.60;;;;;;5031451;28;20018;-78
2024/03/20 00:07:39;;;;;;;11.52;3.13;;;11.60;89.80;;;;;;5015983;28;20022;-78
2024/03/20 00:10:07;;;;;;;7.78;2.78;;;11.60;90.00;;;;;;5014626;28;20034;-78
2024/03/20 00:12:33;;;;;;;7.88;2.92;;;11.50;90.00;;;;;;5016145;28;20113;-77
2024/03/20 00:14:59;;;;;;;10.43;3.10;;;11.50;90.20;;;;;;5031324;28;20014;-78
2024/03/20 00:17:25;;;;;;;5.47;2.72;;;11.50;90.20;;;;;;5031227;28;20374;-78
2024/03/20 00:19:51;;;;;;;6.38;2.28;;;11.50;90.30;;;;;;5030964;28;20022;-78
2024/03/20 00:22:17;;;;;;;8.13;2.78;;;11.40;90.40;;;;;;5030596;28;20064;-78
2024/03/20 00:24:42;;;;;;;8.88;2.90;;;11.50;90.50;;;;;;5014402;28;20025;-78
2024/03/20 00:27:08;;;;;;;7.75;2.55;;;11.50;90.60;;;;;;5015862;28;20363;-78
2024/03/20 00:29:34;;;;;;;7.72;2.50;;;11.50;90.60;;;;;;5031186;28;20018;-78
2024/03/20 00:31:59;;;;;;;11.45;3.08;;;11.40;90.60;;;;;;5031013;28;20022;-78
2024/03/20 00:34:26;;;;;;;8.15;2.40;;;11.40;90.70;;;;;;5014809;28;20018;-77
2024/03/20 00:36:52;;;;;;;9.30;2.60;;;11.40;90.80;;;;;;5030704;28;20116;-78
2024/03/20 00:39:18;;;;;;;6.03;2.25;;;11.30;90.80;;;;;;5015192;28;20085;-78
2024/03/20 00:41:46;;;;;;;6.07;2.38;;;11.30;90.90;;;;;;5030497;28;20026;-78
2024/03/20 00:44:12;;;;;;;9.23;2.47;;;11.30;91.00;;;;;;5014253;28;20022;-78
2024/03/20 00:46:38;;;;;;;7.90;2.28;;;11.30;91.00;;;;;;5014792;28;20033;-78
2024/03/20 00:49:03;;;;;;;7.35;2.47;;;11.30;91.10;;;;;;5030566;28;20100;-77
2024/03/20 00:51:29;;;;;;;7.70;3.20;;;11.20;91.20;;;;;;5030289;28;20018;-78
2024/03/20 00:53:55;;;;;;;6.47;2.67;;;11.20;91.30;;;;;;5030534;28;20092;-78
2024/03/20 00:56:20;;;;;;;8.00;3.37;;;11.20;91.40;;;;;;5014007;28;20018;-78
2024/03/20 00:58:46;;;;;;;6.60;2.83;;;11.20;91.40;;;;;;5014010;28;20028;-78
2024/03/20 01:01:13;;;;;;;7.68;2.85;;;11.20;91.50;;;;;;5030195;28;20052;-78
2024/03/20 01:03:38;;;;;;;5.47;2.17;;;11.20;91.60;;;;;;5030340;28;20021;-78
2024/03/20 01:06:04;;;;;;;7.68;2.58;;;11.20;91.60;;;;;;5013616;28;20454;-78
2024/03/20 01:08:30;;;;;;;6.95;2.67;;;11.10;91.70;;;;;;5015282;28;20026;-78
2024/03/20 01:10:56;;;;;;;8.93;3.08;;;11.10;91.70;;;;;;5030200;28;20026;-78
2024/03/20 01:13:22;;;;;;;8.90;2.23;;;11.10;91.80;;;;;;5030227;28;20033;-78
2024/03/20 01:15:49;;;;;;;7.15;3.33;;;11.10;91.70;;;;;;5030052;28;20036;-78
2024/03/20 01:18:16;;;;;;;7.50;2.28;;;11.10;91.80;;;;;;5029641;28;20029;-78
2024/03/20 01:20:42;;;;;;;10.05;3.45;;;11.10;91.80;;;;;;5030015;28;20025;-78
2024/03/20 01:23:08;;;;;;;7.20;2.58;;;11.10;91.80;;;;;;5014626;28;20022;-77
2024/03/20 01:25:34;;;;;;;6.45;2.60;;;11.20;91.90;;;;;;5029688;28;20612;-78
2024/03/20 01:27:59;;;;;;;5.70;2.83;;;11.10;92.00;;;;;;5029805;28;20029;-78
2024/03/20 01:30:25;;;;;;;7.95;2.90;;;11.10;92.10;;;;;;5013217;28;20466;-78
2024/03/20 01:32:51;;;;;;;10.70;3.00;;;11.00;92.10;;;;;;5029437;28;20057;-78
2024/03/20 01:35:17;;;;;;;4.93;1.85;;;11.00;92.20;;;;;;5014350;28;20018;-77
2024/03/20 01:37:43;;;;;;;6.93;2.83;;;11.00;92.30;;;;;;5029646;28;20022;-78
2024/03/20 01:40:09;;;;;;;9.25;2.92;;;11.00;92.30;;;;;;5029493;28;20050;-78
2024/03/20 01:42:34;;;;;;;9.60;4.00;;;11.00;92.40;;;;;;5029659;28;20056;-77
2024/03/20 01:45:17;;;;;;;8.23;2.15;;;11.00;92.50;;;;;;5014265;28;20054;-78
2024/03/20 01:47:46;;;;;;;5.70;2.20;;;11.00;92.60;;;;;;5029524;28;20022;-78
2024/03/20 01:50:13;;;;;;;7.22;2.70;;;10.90;92.60;;;;;;5014167;28;20022;-78
2024/03/20 01:52:52;;;;;;;6.80;2.67;;;10.90;92.60;;;;;;5014106;28;20022;-78
2024/03/20 01:55:20;;;;;;;6.47;2.65;;;10.80;92.90;;;;;;5012571;28;20054;-78
2024/03/20 01:57:47;;;;;;;6.40;2.67;;;10.90;92.70;;;;;;5013104;28;20432;-78
2024/03/20 02:00:13;;;;;;;12.70;3.23;;;10.90;92.80;;;;;;5012646;28;20026;-77
2024/03/20 02:02:42;;;;;;;6.85;3.30;;;10.90;92.80;;;;;;5029391;28;20029;-78
2024/03/20 02:05:08;;;;;;;7.07;2.70;;;10.90;92.90;;;;;;5029288;28;20018;-78
2024/03/20 02:07:33;;;;;;;8.43;2.70;;;10.80;93.00;;;;;;5029028;28;20029;-77
2024/03/20 02:09:59;;;;;;;7.15;3.15;;;10.80;93.10;;;;;;5029148;28;20022;-77
2024/03/20 02:12:25;;;;;;;5.57;2.60;;;10.80;93.20;;;;;;5012592;28;20018;-78
2024/03/20 02:14:50;;;;;;;5.77;2.50;;;10.80;93.20;;;;;;5012346;28;20025;-77
2024/03/20 02:17:16;;;;;;;6.93;2.90;;;10.80;93.40;;;;;;5028985;28;20014;-78
2024/03/20 02:19:42;;;;;;;5.20;2.45;;;10.90;93.50;;;;;;5012175;28;20053;-78
2024/03/20 02:22:08;;;;;;;7.93;3.15;;;10.90;93.90;;;;;;5018940;28;20014;-78
2024/03/20 02:24:33;;;;;;;9.65;2.83;;;10.90;93.70;;;;;;5013813;28;20026;-78
2024/03/20 02:26:59;;;;;;;8.02;2.47;;;10.90;93.80;;;;;;5028280;28;20029;-78
2024/03/20 02:29:25;;;;;;;7.10;2.45;;;10.90;93.90;;;;;;5013268;28;20136;-78
2024/03/20 02:31:50;;;;;;;9.95;3.05;;;10.90;94.00;;;;;;5013259;28;20022;-78
2024/03/20 02:34:16;;;;;;;5.95;2.75;;;10.90;94.10;;;;;;5028475;28;20111;-78
2024/03/20 02:36:42;;;;;;;9.63;2.95;;;10.90;94.20;;;;;;5028545;28;20034;-78
2024/03/20 02:39:09;;;;;;;6.68;2.60;;;10.90;94.30;;;;;;5028419;28;20111;-78
2024/03/20 02:41:34;;;;;;;7.73;2.90;;;10.80;94.40;;;;;;5013265;28;20030;-77
2024/03/20 02:44:00;;;;;;;7.67;2.53;;;10.80;94.50;;;;;;5028271;28;20018;-78
2024/03/20 02:46:25;;;;;;;6.18;2.55;;;10.90;94.60;;;;;;5013257;28;20101;-78
2024/03/20 02:48:51;;;;;;;7.30;2.73;;;10.80;94.60;;;;;;5013094;28;20489;-78
2024/03/20 02:51:17;;;;;;;5.28;2.33;;;10.80;94.60;;;;;;5028468;28;20470;-78
2024/03/20 02:53:42;;;;;;;9.63;2.78;;;10.80;94.70;;;;;;5028321;28;20024;-78
2024/03/20 02:56:08;;;;;;;9.70;2.77;;;10.80;94.80;;;;;;5013212;28;20046;-77
2024/03/20 02:58:33;;;;;;;7.27;3.00;;;10.70;94.70;;;;;;5028416;28;20022;-78
2024/03/20 03:00:59;;;;;;;6.75;2.38;;;10.70;94.80;;;;;;5012889;28;20049;-78
2024/03/20 03:03:25;;;;;;;5.63;2.50;;;10.70;94.80;;;;;;5028131;28;20032;-78
2024/03/20 03:05:50;;;;;;;5.97;2.80;;;10.60;94.80;;;;;;5028350;28;20033;-78
2024/03/20 03:08:16;;;;;;;7.03;3.00;;;10.60;95.00;;;;;;5012773;28;20030;-77
2024/03/20 03:10:41;;;;;;;7.50;3.03;;;10.60;95.10;;;;;;5027919;28;20029;-78
2024/03/20 03:13:07;;;;;;;7.63;3.03;;;10.50;95.20;;;;;;5028005;28;20104;-78
2024/03/20 03:15:33;;;;;;;11.73;3.63;;;10.50;95.30;;;;;;5027731;28;20553;-77
2024/03/20 03:17:59;;;;;;;7.40;3.40;;;10.50;95.40;;;;;;5027858;28;20014;-77
2024/03/20 03:20:26;;;;;;;8.80;3.27;;;10.50;95.40;;;;;;5027281;28;20029;-77
2024/03/20 03:22:52;;;;;;;7.85;3.63;;;10.50;95.60;;;;;;5027643;28;20068;-78
2024/03/20 03:25:18;;;;;;;7.15;3.17;;;10.50;95.60;;;;;;5012533;28;20033;-77
2024/03/20 03:27:44;;;;;;;9.33;3.43;;;10.50;95.70;;;;;;5011521;28;20108;-78
2024/03/20 03:30:10;;;;;;;11.43;3.53;;;10.50;95.90;;;;;;5011252;28;20129;-78
2024/03/20 03:32:37;;;;;;;9.90;4.23;;;10.60;96.00;;;;;;5011226;28;20025;-78
2024/03/20 03:35:04;;;;;;;8.87;3.70;;;10.50;96.10;;;;;;5011859;28;20033;-78
2024/03/20 03:37:30;;;;;;;10.37;3.70;;;10.50;96.20;;;;;;5012619;28;20024;-78
2024/03/20 03:39:56;;;;;;;6.97;3.27;;;10.60;96.40;;;;;;5011139;28;20049;-78
2024/03/20 03:42:21;;;;;;;8.83;3.73;;;10.50;96.50;;;;;;5012324;28;20026;-78
2024/03/20 03:44:47;;;;;;;7.85;3.60;;;10.60;96.60;;;;;;5012373;28;20026;-77
2024/03/20 03:47:13;;;;;;;7.37;3.57;;;10.60;96.70;;;;;;5011286;28;20018;-77
2024/03/20 03:49:38;;;;;;;7.00;3.93;;;10.60;96.70;;;;;;5011282;28;20030;-78
2024/03/20 03:52:04;;;;;;;8.53;4.13;;;10.50;96.80;;;;;;5027895;28;20026;-78
2024/03/20 03:54:30;;;;;;;7.67;4.13;;;10.50;96.90;;;;;;5012741;28;20030;-78
2024/03/20 03:56:57;;;;;;;8.43;3.77;;;10.50;96.90;;;;;;5011237;28;20037;-78
2024/03/20 03:59:23;;;;;;;10.30;4.17;;;10.50;97.00;;;;;;5011051;28;20021;-78
2024/03/20 04:01:48;;;;;;;6.83;3.77;;;10.50;97.10;;;;;;5012357;28;20022;-77
2024/03/20 04:04:14;;;;;;;10.43;4.30;;;10.50;97.10;;;;;;5011575;28;20136;-78
2024/03/20 04:06:41;;;;;;;8.13;4.00;;;10.40;97.10;;;;;;5011371;28;20037;-77
2024/03/20 04:09:07;;;;;;;9.10;4.03;;;10.50;97.20;;;;;;5011275;28;20084;-78
2024/03/20 04:11:34;;;;;;;8.80;4.53;;;10.40;97.30;;;;;;5011216;28;20029;-77
2024/03/20 04:14:00;;;;;;;8.60;4.93;;;10.40;97.50;;;;;;5011010;28;20076;-78
2024/03/20 04:16:26;;;;;;;9.90;5.17;;;10.40;97.60;;;;;;5010996;28;20026;-78
2024/03/20 04:18:51;;;;;;;15.50;5.17;;;10.30;97.70;;;;;;5012542;28;20081;-78
2024/03/20 04:21:17;;;;;;;10.73;5.30;;;10.40;97.80;;;;;;5013592;28;20038;-78
2024/03/20 04:23:43;;;;;;;11.03;5.30;;;10.40;97.90;;;;;;5015542;28;20073;-78
2024/03/20 04:26:09;;;;;;;10.93;5.03;;;10.30;98.00;;;;;;5015745;28;20511;-78
2024/03/20 04:28:35;;;;;;;9.30;5.07;;;10.40;98.10;;;;;;5014271;28;20029;-77
2024/03/20 04:31:01;;;;;;;10.57;4.32;;;10.30;98.20;;;;;;5015524;28;20087;-78
2024/03/20 04:33:26;;;;;;;9.20;4.93;;;10.30;98.30;;;;;;5015685;28;20391;-77
2024/03/20 04:35:52;;;;;;;10.37;4.50;;;10.30;98.40;;;;;;5014426;28;20091;-77
2024/03/20 04:38:18;;;;;;;11.63;4.53;;;10.30;98.50;;;;;;5015457;28;20551;-77
2024/03/20 04:40:43;;;;;;;11.73;5.27;;;10.20;98.80;;;;;;5015742;28;20164;-77
2024/03/20 04:43:09;;;;;;;12.43;4.90;;;10.20;98.70;;;;;;5014240;28;20018;-78
2024/03/20 04:45:35;;;;;;;10.20;5.23;;;10.20;98.80;;;;;;5015216;28;20026;-78
2024/03/20 04:48:01;;;;;;;13.27;5.37;;;10.20;98.80;;;;;;5015570;28;20450;-78
2024/03/20 04:50:26;;;;;;;9.60;4.60;;;10.20;99.20;;;;;;5015355;28;20505;-78
2024/03/20 04:52:52;;;;;;;11.40;5.00;;;10.20;99.00;;;;;;5015504;28;20040;-78
2024/03/20 04:55:17;;;;;;;9.23;4.93;;;10.10;99.10;;;;;;5015320;28;20119;-78
2024/03/20 04:57:44;;;;;;;12.27;5.90;;;10.10;99.20;;;;;;5013775;28;20022;-78
2024/03/20 05:00:16;;;;;;;8.90;5.07;;;10.10;99.30;;;;;;5013708;28;20034;-77
2024/03/20 05:02:45;;;;;;;10.93;5.13;;;10.10;99.40;;;;;;5015189;28;20026;-77
2024/03/20 05:05:11;;;;;;;11.47;5.50;;;10.10;99.40;;;;;;5014121;28;20053;-77
2024/03/20 05:07:37;;;;;;;12.77;5.20;;;10.20;99.50;;;;;;5013865;28;20069;-77
2024/03/20 05:10:04;;;;;;;10.07;4.77;;;10.10;99.60;;;;;;5014868;28;20048;-78
2024/03/20 05:12:30;;;;;;;10.30;5.60;;;10.00;99.60;;;;;;5014824;28;20433;-78
2024/03/20 05:14:56;;;;;;;13.33;5.63;;;10.00;99.70;;;;;;5013621;28;20025;-78
2024/03/20 05:17:21;;;;;;;13.63;6.10;;;10.00;99.70;;;;;;5013665;28;20026;-78
2024/03/20 05:19:47;;;;;;;13.07;5.60;;;10.00;99.80;;;;;;5013260;28;20125;-77
2024/03/20 05:22:13;;;;;;;12.33;5.67;;;10.00;99.80;;;;;;5013650;28;20018;-78
2024/03/20 05:24:38;;;;;;;12.23;5.80;;;9.90;99.90;;;;;;5013590;28;20465;-78
2024/03/20 05:27:06;;;;;;;12.77;5.40;;;9.90;99.90;;;;;;5014277;28;20128;-77
2024/03/20 05:29:32;;;;;;;14.33;6.10;;;9.90;99.90;;;;;;5013538;28;20025;-78
2024/03/20 05:31:57;;;;;;;12.43;5.90;;;9.90;99.90;;;;;;5013135;28;20037;-77
2024/03/20 05:34:23;;;;;;;12.17;5.90;;;9.80;99.90;;;;;;5014418;28;20219;-77
2024/03/20 05:36:49;;;;;;;11.82;5.78;;;9.90;99.90;;;;;;5014457;28;20462;-78
2024/03/20 05:39:14;;;;;;;11.17;5.27;;;9.80;99.90;;;;;;5013116;28;20046;-77
2024/03/20 05:41:40;;;;;;;14.80;8.23;;;9.80;99.90;;;;;;5014176;28;20032;-77
2024/03/20 05:44:05;;;;;;;13.93;6.07;;;9.80;99.90;;;;;;5014316;28;20026;-78
2024/03/20 05:46:33;;;;;;;9.47;5.07;;;9.80;99.90;;;;;;5013114;28;20110;-78
2024/03/20 05:48:58;;;;;;;9.50;5.43;;;9.70;99.90;;;;;;5014034;28;20072;-77
2024/03/20 05:51:25;;;;;;;10.50;5.33;;;9.80;99.90;;;;;;5012935;28;20037;-76
2024/03/20 05:53:50;;;;;;;9.30;5.63;;;9.80;99.90;;;;;;5013879;28;20028;-75
2024/03/20 05:56:16;;;;;;;15.17;6.50;;;9.80;99.90;;;;;;5011778;28;20026;-75
2024/03/20 05:58:43;;;;;;;11.67;5.53;;;9.80;99.90;;;;;;5016549;28;20388;-75
2024/03/20 06:01:09;;;;;;;16.87;5.77;;;9.80;99.90;;;;;;5023681;28;20021;-77
2024/03/20 06:03:35;;;;;;;14.80;5.77;;;9.80;99.90;;;;;;5033563;28;20018;-77
2024/03/20 06:06:01;;;;;;;12.37;5.43;;;9.80;99.90;;;;;;5032090;28;20022;-76
2024/03/20 06:08:27;;;;;;;9.63;5.03;;;9.80;99.90;;;;;;5032364;28;20377;-77
2024/03/20 06:10:53;;;;;;;11.80;5.53;;;9.80;99.90;;;;;;5022229;28;20017;-77
2024/03/20 06:13:18;;;;;;;13.43;5.67;;;9.80;99.90;;;;;;5031920;28;20385;-77
2024/03/20 06:15:44;;;;;;;10.83;5.20;;;9.80;99.90;;;;;;5021262;28;20018;-77
2024/03/20 06:18:09;;;;;;;8.57;4.50;;;9.80;99.90;;;;;;5044386;28;20099;-76
2024/03/20 06:20:35;;;;;;;10.80;4.63;;;9.80;99.90;;;;;;5026893;28;20485;-76
2024/03/20 06:23:01;;;;;;;9.03;5.10;;;9.80;99.90;;;;;;5016760;28;20014;-76
2024/03/20 06:25:27;;;;;;;7.83;4.60;;;9.80;99.90;;;;;;5012523;28;20370;-77
2024/03/20 06:27:53;;;;;;;7.50;4.27;;;9.80;99.90;;;;;;5028667;28;20045;-77
2024/03/20 06:30:18;;;;;;;10.73;4.73;;;9.90;99.90;;;;;;5028757;28;20473;-77
2024/03/20 06:32:47;;;;;;;7.87;4.10;;;9.90;99.90;;;;;;5013338;28;20195;-77
2024/03/20 06:35:13;;;;;;;10.43;6.10;;;10.00;99.90;;;;;;5013916;28;20381;-77
2024/03/20 06:37:38;;;;;;;12.60;5.63;;;10.00;99.90;;;;;;5028663;28;20018;-77
2024/03/20 06:40:08;;;;;;;8.63;4.53;;;10.00;99.90;;;;;;5028100;28;20042;-77
2024/03/20 06:42:34;;;;;;;10.30;5.30;;;10.10;99.90;;;;;;5027959;28;20026;-77
2024/03/20 06:45:00;;;;;;;16.80;5.80;;;10.10;99.90;;;;;;5012818;28;20022;-76
2024/03/20 06:47:26;;;;;;;11.43;5.57;;;10.20;99.90;;;;;;5028087;28;20379;-77
2024/03/20 06:49:51;;;;;;;13.17;4.57;;;10.30;99.90;;;;;;5038004;28;20211;-77
2024/03/20 06:52:21;;;;;;;11.07;4.70;;;10.30;99.90;;;;;;5031791;28;20603;-77
2024/03/20 06:54:47;;;;;;;12.95;5.82;;;10.30;99.90;;;;;;5032565;28;20017;-77
2024/03/20 06:57:13;;;;;;;6.70;3.83;;;10.40;99.90;;;;;;5030729;28;20492;-77
2024/03/20 06:59:45;;;;;;;13.32;5.68;;;10.40;99.90;;;;;;5030623;28;20009;-77
2024/03/20 07:02:11;;;;;;;14.88;5.07;;;10.50;99.90;;;;;;5030466;28;20014;-76
2024/03/20 07:04:40;;;;;;;10.17;4.90;;;10.50;99.90;;;;;;5031296;28;20017;-77
2024/03/20 07:07:07;;;;;;;14.30;5.27;;;10.60;99.90;;;;;;5031787;28;20473;-77
2024/03/20 07:09:34;;;;;;;17.20;5.65;;;10.60;99.90;;;;;;5031327;28;20041;-77
2024/03/20 07:12:00;;;;;;;10.93;5.17;;;10.70;99.90;;;;;;5032468;28;20025;-76
2024/03/20 07:14:28;;;;;;;9.43;5.10;;;10.70;99.90;;;;;;5031580;28;20029;-77
2024/03/20 07:16:53;;;;;;;11.60;5.53;;;10.70;99.90;;;;;;5031181;28;20044;-77
2024/03/20 07:19:19;;;;;;;12.32;5.22;;;10.80;99.90;;;;;;5031272;28;20528;-77
2024/03/20 07:21:45;;;;;;;13.23;5.73;;;10.80;99.90;;;;;;5030523;28;20026;-77
2024/03/20 07:24:11;;;;;;;13.00;5.70;;;10.80;99.90;;;;;;5030786;28;20023;-77
2024/03/20 07:26:38;;;;;;;12.00;5.85;;;10.90;99.90;;;;;;5030736;28;20539;-77
2024/03/20 07:29:11;;;;;;;12.23;5.78;;;10.90;99.90;;;;;;5030895;28;20318;-77
2024/03/20 07:31:39;;;;;;;13.55;4.97;;;11.00;99.90;;;;;;5030767;28;20049;-77
2024/03/20 07:34:05;;;;;;;11.13;5.30;;;11.00;99.90;;;;;;5030638;28;20041;-77
2024/03/20 07:36:33;;;;;;;11.00;5.38;;;11.10;99.90;;;;;;5031480;28;20025;-77
2024/03/20 07:39:00;;;;;;;10.35;4.45;;;11.10;99.90;;;;;;5030290;28;20060;-77
2024/03/20 07:41:26;;;;;;;10.80;4.40;;;11.20;99.90;;;;;;5030727;28;20026;-77
2024/03/20 07:43:51;;;;;;;14.57;5.40;;;11.30;99.90;;;;;;5032041;28;20018;-77
2024/03/20 07:46:17;;;;;;;12.07;5.28;;;11.40;99.90;;;;;;5028994;28;20029;-77
2024/03/20 07:48:46;;;;;;;11.55;4.95;;;11.40;99.90;;;;;;5027702;28;20028;-78
2024/03/20 07:51:19;;;;;;;10.45;4.85;;;11.50;99.90;;;;;;5027471;28;20489;-78
2024/03/20 07:53:46;;;;;;;11.48;4.43;;;11.60;99.90;;;;;;5012490;28;20022;-78
2024/03/20 07:56:12;;;;;;;9.80;4.63;;;11.70;99.90;;;;;;5015150;28;20049;-78
2024/03/20 07:58:40;;;;;;;10.65;5.25;;;11.80;99.90;;;;;;5029662;28;20347;-78
2024/03/20 08:01:06;;;;;;;11.07;5.20;;;11.90;99.90;;;;;;5032683;28;20048;-78
2024/03/20 08:03:32;;;;;;;13.02;5.35;;;12.00;99.90;;;;;;5036345;28;20025;-78
2024/03/20 08:06:01;;;;;;;12.15;4.57;;;12.00;99.90;;;;;;5036228;28;20109;-78
2024/03/20 08:08:26;;;;;;;11.73;6.10;;;12.10;99.90;;;;;;5034698;28;20079;-78
2024/03/20 08:10:52;;;;;;;11.27;5.93;;;12.20;99.90;;;;;;5034399;28;20116;-78
2024/03/20 08:13:18;;;;;;;14.70;6.13;;;12.30;99.90;;;;;;5034699;28;20018;-78
2024/03/20 08:15:43;;;;;;;12.55;6.47;;;12.40;99.90;;;;;;5034569;28;20175;-78
2024/03/20 08:18:10;;;;;;;10.82;5.75;;;12.50;99.90;;;;;;5034505;28;20033;-78
2024/03/20 08:20:38;;;;;;;8.85;5.78;;;12.50;99.90;;;;;;5034158;28;20159;-78
2024/03/20 08:23:04;;;;;;;13.73;6.90;;;12.60;99.90;;;;;;5034114;28;20022;-78
2024/03/20 08:25:30;;;;;;;11.27;6.70;;;12.70;99.90;;;;;;5035660;28;20029;-78
2024/03/20 08:27:57;;;;;;;13.00;6.07;;;12.80;99.90;;;;;;5035464;28;20030;-78
2024/03/20 08:30:23;;;;;;;14.52;5.90;;;12.90;99.90;;;;;;5034389;28;20017;-78
2024/03/20 08:32:49;;;;;;;15.35;7.75;;;13.00;99.90;;;;;;5033767;28;20051;-78
2024/03/20 08:35:17;;;;;;;13.55;5.72;;;13.10;99.90;;;;;;5033954;28;20026;-78
2024/03/20 08:37:43;;;;;;;12.63;7.07;;;13.30;99.90;;;;;;5033912;28;20021;-78
2024/03/20 08:40:10;;;;;;;10.05;6.50;;;13.30;99.90;;;;;;5033328;28;20049;-78
2024/03/20 08:42:36;;;;;;;12.73;6.45;;;13.50;99.90;;;;;;5035028;28;20097;-78
2024/03/20 08:45:03;;;;;;;13.02;7.53;;;13.60;99.90;;;;;;5035331;28;20050;-78
2024/03/20 08:47:29;;;;;;;12.55;7.45;;;13.70;99.90;;;;;;5034089;28;20496;-78
2024/03/20 08:49:55;;;;;;;13.75;7.63;;;13.80;99.90;;;;;;5034813;28;20029;-78
2024/03/20 08:52:21;;;;;;;16.30;8.38;;;13.90;99.90;;;;;;5035180;28;20475;-78
2024/03/20 08:54:50;;;;;;;16.92;8.80;;;14.10;99.90;;;;;;5035499;28;20014;-78
2024/03/20 08:57:17;;;;;;;13.63;7.82;;;14.20;99.90;;;;;;5033886;28;20017;-78
2024/03/20 08:59:43;;;;;;;14.85;8.75;;;14.30;99.60;;;;;;5033797;28;20492;-78
2024/03/20 09:02:09;;;;;;;15.90;8.18;;;14.50;99.30;;;;;;5033700;28;20021;-78
2024/03/20 09:04:35;;;;;;;13.52;7.75;;;14.60;99.00;;;;;;5033700;28;20029;-78
2024/03/20 09:07:00;;;;;;;13.60;8.35;;;14.80;98.80;;;;;;5033182;28;20104;-78
2024/03/20 09:09:26;;;;;;;13.23;7.97;;;14.90;98.40;;;;;;5035039;28;20113;-78
2024/03/20 09:11:52;;;;;;;14.70;7.78;;;15.00;98.00;;;;;;5033434;28;20022;-78
2024/03/20 09:14:18;;;;;;;15.18;7.70;;;15.10;97.70;;;;;;5034488;28;20101;-78
2024/03/20 09:16:44;;;;;;;11.57;7.25;;;15.20;97.30;;;;;;5033307;28;20037;-78
2024/03/20 09:19:10;;;;;;;13.68;8.45;;;15.30;96.90;;;;;;5034493;28;20049;-78
2024/03/20 09:21:38;;;;;;;14.00;8.00;;;15.50;96.60;;;;;;5033001;28;20515;-78
2024/03/20 09:24:05;;;;;;;13.10;7.07;;;15.50;96.20;;;;;;5033166;28;20024;-78
2024/03/20 09:26:33;;;;;;;12.02;7.15;;;15.70;95.80;;;;;;5034367;28;20474;-78
2024/03/20 09:29:00;;;;;;;14.35;7.57;;;15.80;95.80;;;;;;5033118;28;20100;-78
2024/03/20 09:31:26;;;;;;;12.02;7.35;;;15.90;95.10;;;;;;5032878;28;20112;-78
2024/03/20 09:33:52;;;;;;;14.00;8.18;;;16.00;94.80;;;;;;5034546;28;20482;-78
2024/03/20 09:36:18;;;;;;;12.68;7.93;;;16.10;94.50;;;;;;5033215;28;20121;-77
2024/03/20 09:38:44;;;;;;;15.48;8.95;;;16.20;94.30;;;;;;5034379;28;20041;-78
2024/03/20 09:41:16;;;;;;;14.48;8.00;;;16.30;94.10;;;;;;5032974;28;20492;-78
2024/03/20 09:43:43;;;;;;;15.73;9.02;;;16.40;93.80;;;;;;5033004;28;20017;-78
2024/03/20 09:46:14;;;;;;;13.10;7.78;;;16.50;93.40;;;;;;5034282;28;20025;-78
2024/03/20 09:48:40;;;;;;;13.93;7.95;;;16.60;92.90;;;;;;5032488;28;20013;-78
2024/03/20 09:51:05;;;;;;;11.25;7.53;;;16.80;92.50;;;;;;5032456;28;20025;-76
2024/03/20 09:53:34;;;;;;;15.05;9.48;;;16.90;92.20;;;;;;5034103;28;20049;-77
2024/03/20 09:56:09;;;;;;;14.95;8.70;;;16.90;91.50;;;;;;5033721;28;20026;-77
2024/03/20 09:58:37;;;;;;;16.38;9.20;;;17.00;91.20;;;;;;5032198;28;20032;-77
2024/03/20 10:01:08;;;;;;;13.55;8.05;;;17.10;90.60;;;;;;5029601;28;20097;-77
2024/03/20 10:03:34;;;;;;;13.05;8.45;;;17.10;90.50;;;;;;5032148;28;20022;-78
2024/03/20 10:06:00;;;;;;;16.05;9.65;;;17.20;90.10;;;;;;5032021;28;20116;-77
2024/03/20 10:08:26;;;;;;;15.02;9.65;;;17.40;89.60;;;;;;5033189;28;20440;-77
2024/03/20 10:10:54;;;;;;;13.85;8.60;;;17.50;89.10;;;;;;5030440;28;20030;-76
2024/03/20 10:13:19;;;;;;;17.15;9.25;;;17.70;88.90;;;;;;5023684;28;20053;-76
2024/03/20 10:15:45;;;;;;;10.55;7.90;;;17.90;88.60;;;;;;5022719;28;20422;-77
2024/03/20 10:18:15;;;;;;;13.32;7.80;;;18.20;88.60;;;;;;5015913;28;20076;-75
2024/03/20 10:20:41;;;;;;;15.18;8.38;;;18.40;88.20;;;;;;5012871;28;20029;-76
2024/03/20 10:23:13;;;;;;;16.35;7.88;;;18.80;88.30;;;;;;5012951;28;20124;-78
2024/03/20 10:25:38;;;;;;;13.73;7.32;;;19.20;87.70;;;;;;5019275;28;20114;-78
2024/03/20 10:28:11;;;;;;;9.95;6.80;;;19.50;87.30;;;;;;5012710;28;20120;-76
2024/03/20 10:30:38;;;;;;;12.60;7.03;;;19.80;86.50;;;;;;5012488;28;20454;-76
2024/03/20 10:33:07;;;;;;;10.43;6.85;;;20.10;85.80;;;;;;5012992;28;20034;-76
2024/03/20 10:35:34;;;;;;;9.10;5.82;;;20.40;84.50;;;;;;5019279;28;20355;-76
2024/03/20 10:38:01;;;;;;;13.93;7.80;;;20.80;84.20;;;;;;5013495;28;20040;-77
2024/03/20 10:40:28;;;;;;;11.25;6.85;;;21.20;82.30;;;;;;5030233;28;20362;-77
2024/03/20 10:42:54;;;;;;;11.05;5.63;;;21.50;81.30;;;;;;5030613;28;20044;-76
2024/03/20 10:45:22;;;;;;;9.60;5.82;;;21.80;80.00;;;;;;5031692;28;20381;-76
2024/03/20 10:47:47;;;;;;;13.10;6.57;;;22.00;79.10;;;;;;5030382;28;20017;-76
2024/03/20 10:50:15;;;;;;;9.40;5.28;;;22.30;78.10;;;;;;5029267;28;20034;-77
2024/03/20 10:52:42;;;;;;;7.95;5.35;;;22.60;77.30;;;;;;5030436;28;20017;-77
2024/03/20 10:55:11;;;;;;;6.97;4.20;;;23.00;76.50;;;;;;5031819;28;20026;-76
2024/03/20 10:57:37;;;;;;;9.45;4.65;;;23.40;75.10;;;;;;5032748;28;20025;-77
2024/03/20 11:00:09;;;;;;;8.30;4.15;;;23.60;73.80;;;;;;5031221;28;20108;-76
2024/03/20 11:02:36;;;;;;;11.30;5.60;;;24.00;71.90;;;;;;5031308;28;20029;-76
2024/03/20 11:05:02;;;;;;;6.85;4.25;;;24.30;69.30;;;;;;5032959;28;20056;-76
2024/03/20 11:07:28;;;;;;;7.88;4.07;;;24.40;68.20;;;;;;5032105;28;20033;-76
2024/03/20 11:09:56;;;;;;;7.40;4.05;;;24.60;67.30;;;;;;5032016;28;20108;-76
2024/03/20 11:12:29;;;;;;;7.10;3.90;;;24.90;66.20;;;;;;5031618;28;20021;-76
2024/03/20 11:15:00;;;;;;;9.10;4.05;;;25.20;64.70;;;;;;5030701;28;20084;-76
2024/03/20 11:17:26;;;;;;;7.45;3.85;;;25.40;64.10;;;;;;5045352;28;20032;-78
2024/03/20 11:19:52;;;;;;;7.10;4.18;;;25.80;63.30;;;;;;5029936;28;20025;-77
2024/03/20 11:22:24;;;;;;;6.10;3.25;;;26.10;62.20;;;;;;5031804;28;20033;-79
2024/03/20 11:24:51;;;;;;;9.82;4.35;;;26.40;61.50;;;;;;5031730;28;20021;-76
2024/03/20 11:27:17;;;;;;;6.60;4.50;;;26.60;59.90;;;;;;5027830;28;20044;-77
2024/03/20 11:29:44;;;;;;;9.48;5.15;;;26.80;58.70;;;;;;5032568;28;20485;-77
2024/03/20 11:32:14;;;;;;;7.80;4.15;;;26.90;58.00;;;;;;5036212;28;20029;-76
2024/03/20 11:34:43;;;;;;;8.50;4.47;;;26.90;57.50;;;;;;5035054;28;20018;-77
2024/03/20 11:37:16;;;;;;;11.02;5.07;;;26.80;57.20;;;;;;5035083;28;20032;-77
2024/03/20 11:39:43;;;;;;;8.02;4.88;;;26.70;56.80;;;;;;5036213;28;20045;-77
2024/03/20 11:42:10;;;;;;;7.15;4.28;;;26.70;56.50;;;;;;5035250;28;20025;-77
2024/03/20 11:44:41;;;;;;;7.05;3.75;;;26.50;56.00;;;;;;5034651;28;20017;-77
2024/03/20 11:47:14;;;;;;;8.43;4.05;;;26.30;55.30;;;;;;5035971;28;20087;-77
2024/03/20 11:49:46;;;;;;;7.25;4.57;;;26.10;55.50;;;;;;5034982;28;20021;-77
2024/03/20 11:52:16;;;;;;;11.00;4.40;;;26.00;55.30;;;;;;5029052;28;20029;-77
2024/03/20 11:54:44;;;;;;;10.80;4.38;;;26.00;55.40;;;;;;5015901;28;20037;-78
2024/03/20 11:57:12;;;;;;;7.28;4.40;;;25.90;55.40;;;;;;5024557;28;20025;-76
2024/03/20 11:59:39;;;;;;;8.30;3.75;;;25.90;55.40;;;;;;5033851;28;20032;-78
2024/03/20 12:02:06;;;;;;;8.75;3.95;;;25.80;55.00;;;;;;5035310;28;20036;-77
2024/03/20 12:04:35;;;;;;;7.53;4.25;;;25.70;54.80;;;;;;5033518;28;20025;-77
2024/03/20 12:07:00;;;;;;;6.25;3.63;;;25.70;55.00;;;;;;5035993;28;20025;-77
2024/03/20 12:09:26;;;;;;;5.65;3.65;;;25.70;55.00;;;;;;5036020;28;20079;-77
2024/03/20 12:11:52;;;;;;;7.57;3.85;;;25.70;54.90;;;;;;5035698;28;20108;-78
2024/03/20 12:14:18;;;;;;;4.68;3.42;;;25.70;54.90;;;;;;5033877;28;20021;-78
2024/03/20 12:16:43;;;;;;;8.40;3.75;;;25.80;54.80;;;;;;5034677;28;20596;-77
2024/03/20 12:19:09;;;;;;;7.95;4.38;;;25.70;54.50;;;;;;5034640;28;20101;-78
2024/03/20 12:21:35;;;;;;;6.55;3.17;;;25.70;54.30;;;;;;5035485;28;20022;-77
2024/03/20 12:24:00;;;;;;;5.65;2.88;;;25.70;54.30;;;;;;5035583;28;20512;-77
2024/03/20 12:26:29;;;;;;;5.85;2.45;;;25.70;54.00;;;;;;5035564;28;20358;-77
2024/03/20 12:28:55;;;;;;;6.03;2.80;;;25.80;53.80;;;;;;5034044;28;20021;-78
2024/03/20 12:31:22;;;;;;;7.25;3.13;;;25.70;53.60;;;;;;5034097;28;20032;-77
2024/03/20 12:33:51;;;;;;;6.30;2.80;;;25.80;53.90;;;;;;5036257;28;20101;-77
2024/03/20 12:36:21;;;;;;;9.07;4.00;;;25.90;53.70;;;;;;5035698;28;20079;-77
2024/03/20 12:38:51;;;;;;;5.72;3.10;;;26.10;53.70;;;;;;5033784;28;20053;-77